Terminal Aerodrome Forecast
Issued by NWS

Home | Current Version | Previous Version | Text Only | Print | Product List | Glossary On
Versions: 1 2 3 4 5 6 7 8 9 10 11 12 13 14 15 16 17 18
000
FTUS45 KCYS 271804 AAA
TAFAIA
TAF AMD
KAIA 271804Z 2718/2818 03012G20KT P6SM -SHRA SCT030 OVC050
     FM272100 04012KT P6SM VCTS BKN050CB
     FM280000 04005KT P6SM OVC100=

USA.gov is the U.S. government's official web portal to all federal, state and local government web resources and services.